DLH6YX LQSA-EDDF
Flight info
| Callsign | DLH6YX |
|---|---|
| Flight time | N/A |
| Altitude | 38000 |
| Route | BOSNA DCT PODET DCT SIMBA DCT AKINI T161 DEBHI DEBHI1C |
| Aircraft | A320/M-SDE2E3FGIJ1LORWXYZ/HB1 |
Departure
| Time | 2026-04-26 18:15 |
|---|---|
| Airport | Sarajevo International Airport (LQSA) |
Arrival
| Time | N/A |
|---|---|
| Airport | Frankfurt Main Airport (EDDF) |
| Time | Latitude | Longitude | Altitude | Speed | Heading |
|---|---|---|---|---|---|
| 2026-04-26 17:33 | 43.82519 | 18.33692 | 1687 ft | 0 kts | 26° |
| 2026-04-26 18:07 | 43.82517 | 18.33691 | 1685 ft | 2 kts | 27° |
| 2026-04-26 18:07 | 43.82503 | 18.33679 | 1690 ft | 4 kts | 36° |
| 2026-04-26 18:08 | 43.82477 | 18.33645 | 1692 ft | 4 kts | 60° |
| 2026-04-26 18:08 | 43.82468 | 18.33611 | 1690 ft | 4 kts | 91° |
| 2026-04-26 18:08 | 43.82471 | 18.33591 | 1687 ft | 0 kts | 118° |
| 2026-04-26 18:11 | 43.82468 | 18.33598 | 1688 ft | 4 kts | 117° |
| 2026-04-26 18:11 | 43.82451 | 18.33644 | 1689 ft | 7 kts | 117° |
| 2026-04-26 18:11 | 43.82425 | 18.33713 | 1692 ft | 10 kts | 117° |
| 2026-04-26 18:11 | 43.82388 | 18.33812 | 1690 ft | 13 kts | 117° |
| 2026-04-26 18:12 | 43.82344 | 18.33930 | 1692 ft | 15 kts | 117° |
| 2026-04-26 18:12 | 43.82297 | 18.34055 | 1698 ft | 15 kts | 117° |
| 2026-04-26 18:12 | 43.82246 | 18.34191 | 1703 ft | 17 kts | 117° |
| 2026-04-26 18:12 | 43.82188 | 18.34345 | 1707 ft | 19 kts | 117° |
| 2026-04-26 18:13 | 43.82124 | 18.34517 | 1711 ft | 20 kts | 117° |
| 2026-04-26 18:13 | 43.82064 | 18.34613 | 1714 ft | 10 kts | 154° |
| 2026-04-26 18:13 | 43.82007 | 18.34624 | 1715 ft | 7 kts | 186° |
| 2026-04-26 18:13 | 43.81993 | 18.34618 | 1716 ft | 6 kts | 201° |
| 2026-04-26 18:14 | 43.81941 | 18.34533 | 1715 ft | 9 kts | 281° |
| 2026-04-26 18:14 | 43.81970 | 18.34453 | 1713 ft | 16 kts | 297° |
| 2026-04-26 18:14 | 43.82130 | 18.34026 | 1708 ft | 89 kts | 297° |
| 2026-04-26 18:14 | 43.82525 | 18.32972 | 1683 ft | 155 kts | 297° |
| 2026-04-26 18:15 | 43.83054 | 18.31539 | 2146 ft | 172 kts | 299° |
| 2026-04-26 18:15 | 43.83782 | 18.30183 | 2800 ft | 182 kts | 324° |
| 2026-04-26 18:15 | 43.84968 | 18.29381 | 3341 ft | 199 kts | 343° |
| 2026-04-26 18:15 | 43.86359 | 18.28877 | 3846 ft | 214 kts | 346° |
| 2026-04-26 18:16 | 43.87862 | 18.28399 | 4339 ft | 231 kts | 347° |
| 2026-04-26 18:16 | 43.90561 | 18.27490 | 5690 ft | 244 kts | 347° |
| 2026-04-26 18:16 | 43.92208 | 18.26883 | 6688 ft | 245 kts | 345° |
| 2026-04-26 18:17 | 43.93855 | 18.26246 | 7683 ft | 247 kts | 344° |
| 2026-04-26 18:17 | 43.95527 | 18.25663 | 8638 ft | 250 kts | 351° |
| 2026-04-26 18:17 | 43.97322 | 18.25403 | 9239 ft | 269 kts | 353° |
| 2026-04-26 18:17 | 43.99220 | 18.25159 | 10083 ft | 276 kts | 353° |
| 2026-04-26 18:18 | 44.01146 | 18.24914 | 10899 ft | 280 kts | 353° |
| 2026-04-26 18:18 | 44.03101 | 18.24664 | 11755 ft | 284 kts | 354° |
| 2026-04-26 18:18 | 44.05064 | 18.24242 | 12622 ft | 287 kts | 343° |
| 2026-04-26 18:18 | 44.06910 | 18.23137 | 13447 ft | 294 kts | 329° |
| 2026-04-26 18:19 | 44.08563 | 18.21293 | 13776 ft | 318 kts | 313° |
| 2026-04-26 18:19 | 44.10058 | 18.18922 | 14254 ft | 331 kts | 312° |
| 2026-04-26 18:19 | 44.11584 | 18.16481 | 14928 ft | 337 kts | 312° |
| 2026-04-26 18:19 | 44.13133 | 18.14010 | 15674 ft | 340 kts | 312° |
| 2026-04-26 18:20 | 44.14702 | 18.11517 | 16403 ft | 344 kts | 313° |
| 2026-04-26 18:20 | 44.16293 | 18.08998 | 17106 ft | 349 kts | 313° |
| 2026-04-26 18:20 | 44.17909 | 18.06443 | 17788 ft | 354 kts | 313° |
| 2026-04-26 18:20 | 44.18991 | 18.04732 | 18243 ft | 357 kts | 313° |
| 2026-04-26 18:21 | 44.21205 | 18.01226 | 19070 ft | 363 kts | 313° |
| 2026-04-26 18:21 | 44.22884 | 17.98564 | 19687 ft | 367 kts | 312° |
| 2026-04-26 18:21 | 44.24549 | 17.95918 | 20305 ft | 370 kts | 312° |
| 2026-04-26 18:21 | 44.26253 | 17.93208 | 20944 ft | 373 kts | 312° |
| 2026-04-26 18:22 | 44.27975 | 17.90468 | 21597 ft | 377 kts | 312° |
| 2026-04-26 18:22 | 44.29709 | 17.87706 | 22214 ft | 380 kts | 312° |
| 2026-04-26 18:22 | 44.31458 | 17.84919 | 22844 ft | 383 kts | 312° |
| 2026-04-26 18:22 | 44.33217 | 17.82109 | 23516 ft | 386 kts | 311° |
| 2026-04-26 18:23 | 44.34991 | 17.79278 | 24085 ft | 389 kts | 311° |
| 2026-04-26 18:23 | 44.36799 | 17.76443 | 24600 ft | 392 kts | 315° |
| 2026-04-26 18:23 | 44.38855 | 17.73925 | 25149 ft | 394 kts | 321° |
| 2026-04-26 18:23 | 44.40992 | 17.71507 | 25663 ft | 397 kts | 321° |
| 2026-04-26 18:24 | 44.43147 | 17.69064 | 26163 ft | 400 kts | 321° |
| 2026-04-26 18:24 | 44.45307 | 17.66606 | 26682 ft | 401 kts | 320° |
| 2026-04-26 18:24 | 44.47475 | 17.64131 | 27168 ft | 404 kts | 320° |
| 2026-04-26 18:24 | 44.49659 | 17.61637 | 27613 ft | 407 kts | 320° |
| 2026-04-26 18:25 | 44.51861 | 17.59125 | 28059 ft | 410 kts | 320° |
| 2026-04-26 18:25 | 44.54081 | 17.56588 | 28490 ft | 413 kts | 320° |
| 2026-04-26 18:25 | 44.56311 | 17.54033 | 28975 ft | 415 kts | 320° |
| 2026-04-26 18:25 | 44.58553 | 17.51459 | 29390 ft | 418 kts | 320° |
| 2026-04-26 18:26 | 44.60811 | 17.48866 | 29821 ft | 421 kts | 320° |
| 2026-04-26 18:26 | 44.63086 | 17.46250 | 30222 ft | 424 kts | 320° |
| 2026-04-26 18:26 | 44.65372 | 17.43622 | 30574 ft | 426 kts | 320° |
| 2026-04-26 18:26 | 44.67669 | 17.40982 | 30926 ft | 428 kts | 320° |
| 2026-04-26 18:27 | 44.69977 | 17.38328 | 31269 ft | 430 kts | 320° |
| 2026-04-26 18:27 | 44.72293 | 17.35659 | 31605 ft | 432 kts | 320° |
| 2026-04-26 18:27 | 44.74615 | 17.32976 | 31976 ft | 432 kts | 320° |
| 2026-04-26 18:27 | 44.76930 | 17.30296 | 32440 ft | 430 kts | 320° |
| 2026-04-26 18:28 | 44.79234 | 17.27627 | 32916 ft | 428 kts | 320° |
| 2026-04-26 18:28 | 44.81528 | 17.24969 | 33386 ft | 426 kts | 319° |
| 2026-04-26 18:28 | 44.83813 | 17.22320 | 33861 ft | 425 kts | 319° |
| 2026-04-26 18:28 | 44.86094 | 17.19679 | 34313 ft | 423 kts | 319° |
| 2026-04-26 18:29 | 44.88363 | 17.17052 | 34704 ft | 422 kts | 319° |
| 2026-04-26 18:29 | 44.90625 | 17.14429 | 35079 ft | 421 kts | 319° |
| 2026-04-26 18:29 | 44.92849 | 17.11840 | 35438 ft | 420 kts | 319° |
| 2026-04-26 18:29 | 44.95098 | 17.09219 | 35796 ft | 419 kts | 319° |
| 2026-04-26 18:30 | 44.97340 | 17.06601 | 36133 ft | 418 kts | 319° |
| 2026-04-26 18:30 | 44.99606 | 17.03951 | 36465 ft | 417 kts | 319° |
| 2026-04-26 18:30 | 45.01839 | 17.01334 | 36761 ft | 417 kts | 318° |
| 2026-04-26 18:30 | 45.04070 | 16.98718 | 37080 ft | 417 kts | 318° |
| 2026-04-26 18:31 | 45.06302 | 16.96106 | 37366 ft | 416 kts | 318° |
| 2026-04-26 18:31 | 45.08534 | 16.93489 | 37659 ft | 416 kts | 318° |
| 2026-04-26 18:31 | 45.10760 | 16.90879 | 37961 ft | 415 kts | 318° |
| 2026-04-26 18:31 | 45.12957 | 16.88301 | 38130 ft | 415 kts | 318° |
| 2026-04-26 18:32 | 45.17389 | 16.83088 | 38157 ft | 413 kts | 318° |
| 2026-04-26 18:32 | 45.21805 | 16.77878 | 38164 ft | 413 kts | 318° |
| 2026-04-26 18:33 | 45.26215 | 16.72665 | 38163 ft | 412 kts | 317° |
| 2026-04-26 18:33 | 45.30619 | 16.67447 | 38163 ft | 412 kts | 317° |
| 2026-04-26 18:34 | 45.35021 | 16.62225 | 38189 ft | 412 kts | 317° |
| 2026-04-26 18:34 | 45.39420 | 16.56993 | 38188 ft | 412 kts | 317° |
| 2026-04-26 18:35 | 45.43804 | 16.51763 | 38184 ft | 411 kts | 317° |
| 2026-04-26 18:35 | 45.48178 | 16.46525 | 38184 ft | 411 kts | 317° |
| 2026-04-26 18:36 | 45.52556 | 16.41287 | 38181 ft | 411 kts | 317° |
| 2026-04-26 18:36 | 45.56934 | 16.36048 | 38182 ft | 411 kts | 317° |
| 2026-04-26 18:37 | 45.61310 | 16.30788 | 38183 ft | 411 kts | 317° |
| 2026-04-26 18:37 | 45.65678 | 16.25523 | 38188 ft | 411 kts | 317° |
| 2026-04-26 18:38 | 45.70044 | 16.20246 | 38182 ft | 411 kts | 317° |
| 2026-04-26 18:38 | 45.74420 | 16.14960 | 38183 ft | 412 kts | 317° |